100LL.CA
Aviation Fuel Pricing for Canadians
Please upgrade your browser - Tested with IE9, FireFox, Chrome, Safari

Fuel Airports Other Help
Prices Economy Info List METAR/TAF Kneeboard Help

Reference Airport: WHITEHORSE/ERIK NIELSEN INTL, YT
N 60 42 34  W 135 04 02
Provinces to show:

CYXY WHITEHORSE/ERIK NIELSEN INTL, YT
WEATHER
METARCYXY 221400Z VRB02KT 15SM -RA SCT042 OVC055 11/10 A2974 RMK SC3SC5 SLP083 DENSITY ALT 2600FT
TAFTAF CYXY 221140Z 2212/2312 30005KT P6SM BKN050 OVC080 TEMPO 2212/2216 P6SM -SHRA FM221600 33005KT P6SM -SHRA SCT020 OVC050 TEMPO 2216/2312 5SM -SHRA BR BKN020 OVC040 RMK NXT FCST BY 221800Z
OTHER SITES

FlightAware

FltPlan

Google Maps

SkyVector
FUEL
FBO 100LL
member
100LL
public
JETA MOGAS
North 60 Petro (2021-08-08)1.5991.145
Alkan Air (2018-03-13)1.9431.533
  Note: Alkan Air http://www.alkanair.com
Air North (2018-12-18)1.440
Canada Flight Supplement - CYXY
(opens in new tab/window)


Please Send Updates!

Desktop Version ]  [ Mobile Version ]  [ Disclaimer ]